Airfield :







YOU CAN JOIN US ON...

 
LOGIN :

Register | Disclaimer

   EN    FR    IT 

 









Legend :    VFR   Marginal VFR   IFR   Intensive IFR   Very Intensive IFR
Visi :
Ceiling :
>= 8 km
>= 3000ft
5 to 8 km
1000 to 3000 ft
1500m to 5 km
500 to 1000 ft
800 to 1500m
200 to 500 ft
< 800m
< 200 ft
Symbols :   Thunderstorms  Fog  Heavy snow  Heavy precipitations  Wind > 20 kt






- Airport Elevation : 56 ft


KRKD - Knox County Regional

CURRENT METAR :
  • 102256Z AUTO 22013G24KT 9SM -RA OVC070 11/09 A2969 RMK AO2 SLP055 P0002 T01060094

EXPIRED METARs :
  • 102156Z AUTO 23011KT 10SM -RA BKN065 OVC110 11/10 A2966 RMK AO2 SLP043 P0001 T01110100
  • 102056Z AUTO 21010KT 7SM -RA FEW006 OVC060 11/10 A2966 RMK AO2 RAB53 SLP043 P0000 60000 T01110100 52004

TAF KRKD
Valid from the 10 at 20:00 until the 11 at 18:00 UTC


102011Z 1020/1118 22010KT P6SM VCSH OVC008
TEMPO 1020/1022 4SM -SHRA BKN020 OVC040
FM102200 24009KT P6SM BKN020 OVC050
FM110100 30006KT P6SM BKN050 OVC080
PROB30 1107/1110 2SM -SN BKN030 OVC050 AMD LTD TO VIS AND WIND



MET'MAP, your aeronautical weather chart ! - Copyright ORBIFLY December 2007 - Disclaimer

ORBIFLY MET'MAP TEAM :

Programming & Development : Alexandra Zaïnal
Concept & original design : Baudouin d'Aumeries
Assistance for programming : Marc-Olivier Méhu
Technical & hardware support : Manuel Goepfert

Contact : metmap@orbifly.com




SOURCES & CREDITS :

   NOAA